Time;durP1;ratioP1;P1;durP2;ratioP2;P2;SDS_P1;SDS_P2;PMS_P1;PMS_P2;Temp;Humidity;BMP_temperature;BMP_pressure;BME280_temperature;BME280_humidity;BME280_pressure;Samples;Min_cycle;Max_cycle;Signal;HPM_P1;HPM_P2
2023/08/15 00:01:41;;;;;;;4.68;1.70;;;23.60;73.90;;;;;;5071999;28;20052;-62
2023/08/15 00:04:06;;;;;;;5.40;2.00;;;23.60;73.90;;;;;;5074896;28;20483;-62
2023/08/15 00:06:32;;;;;;;4.80;2.00;;;23.60;73.90;;;;;;5072899;28;20044;-62
2023/08/15 00:08:59;;;;;;;5.70;1.73;;;23.60;73.90;;;;;;5073898;28;20575;-62
2023/08/15 00:11:25;;;;;;;6.00;1.77;;;23.60;73.90;;;;;;5069170;28;20052;-62
2023/08/15 00:13:55;;;;;;;4.00;1.70;;;23.60;73.90;;;;;;5054630;28;20044;-62
2023/08/15 00:16:21;;;;;;;4.88;1.60;;;23.60;73.90;;;;;;5061158;28;20472;-62
2023/08/15 00:18:46;;;;;;;3.60;1.73;;;23.60;73.90;;;;;;5074552;28;20078;-63
2023/08/15 00:21:12;;;;;;;2.13;1.45;;;23.50;73.80;;;;;;5074645;28;20040;-62
2023/08/15 00:23:38;;;;;;;3.20;1.70;;;23.60;73.90;;;;;;5073383;28;20447;-62
2023/08/15 00:26:03;;;;;;;3.67;1.90;;;23.50;74.40;;;;;;5074506;28;20472;-62
2023/08/15 00:28:29;;;;;;;3.85;1.77;;;23.50;73.80;;;;;;5074543;28;20102;-62
2023/08/15 00:30:54;;;;;;;4.30;1.63;;;23.50;73.80;;;;;;5073320;28;20053;-62
2023/08/15 00:33:20;;;;;;;4.90;1.70;;;23.50;73.80;;;;;;5074167;28;20052;-62
2023/08/15 00:35:45;;;;;;;5.55;1.90;;;23.50;73.80;;;;;;5072451;28;20114;-63
2023/08/15 00:38:11;;;;;;;4.18;1.80;;;23.50;73.80;;;;;;5073583;28;20041;-62
2023/08/15 00:40:40;;;;;;;2.83;1.50;;;23.50;73.80;;;;;;5072579;28;20051;-62
2023/08/15 00:43:06;;;;;;;3.85;1.67;;;23.50;73.80;;;;;;5074188;28;20044;-62
2023/08/15 00:45:32;;;;;;;4.93;1.98;;;23.50;73.80;;;;;;5071891;28;20400;-62
2023/08/15 00:47:58;;;;;;;3.95;1.75;;;23.60;73.90;;;;;;5073711;28;20071;-63
2023/08/15 00:50:23;;;;;;;2.80;1.60;;;23.50;73.80;;;;;;5074188;28;20485;-62
2023/08/15 00:52:49;;;;;;;5.20;1.70;;;23.50;73.80;;;;;;5073012;28;20082;-62
2023/08/15 00:55:15;;;;;;;5.45;1.90;;;23.50;73.80;;;;;;5072894;28;20044;-62
2023/08/15 00:57:40;;;;;;;4.40;1.88;;;23.50;73.80;;;;;;5073684;28;20097;-63
2023/08/15 01:00:07;;;;;;;5.07;1.70;;;23.50;73.80;;;;;;5071699;28;20077;-63
2023/08/15 01:02:32;;;;;;;2.95;1.58;;;23.50;73.80;;;;;;5073653;28;20399;-62
2023/08/15 01:04:58;;;;;;;4.05;1.80;;;23.50;73.80;;;;;;5071200;28;20040;-62
2023/08/15 01:07:23;;;;;;;4.13;1.90;;;23.50;73.80;;;;;;5072539;28;20071;-62
2023/08/15 01:09:49;;;;;;;4.15;1.65;;;23.50;73.80;;;;;;5073661;28;20044;-62
2023/08/15 01:12:36;;;;;;;3.42;1.60;;;23.50;73.90;;;;;;5072599;28;20915;-62
2023/08/15 01:15:05;;;;;;;3.30;1.55;;;23.50;73.80;;;;;;5072523;28;20045;-62
2023/08/15 01:17:53;;;;;;;3.55;1.65;;;23.50;73.90;;;;;;5072300;28;20067;-62
2023/08/15 01:20:23;;;;;;;3.05;1.70;;;23.50;73.80;;;;;;5060751;28;20079;-62
2023/08/15 01:22:48;;;;;;;3.55;1.60;;;23.50;74.40;;;;;;5055543;28;20032;-62
2023/08/15 01:25:14;;;;;;;2.65;1.40;;;23.40;74.40;;;;;;5055354;28;20131;-62
2023/08/15 01:27:40;;;;;;;3.92;1.77;;;23.50;73.80;;;;;;5071944;28;20177;-62
2023/08/15 01:30:06;;;;;;;3.70;1.88;;;23.40;73.70;;;;;;5072724;28;20210;-62
2023/08/15 01:32:50;;;;;;;3.90;1.90;;;23.40;73.80;;;;;;5071549;28;20064;-62
2023/08/15 01:35:19;;;;;;;4.13;1.85;;;23.40;73.70;;;;;;5071380;28;20137;-62
2023/08/15 01:37:47;;;;;;;2.85;1.58;;;23.40;73.70;;;;;;5071475;28;20048;-63
2023/08/15 01:40:14;;;;;;;3.03;1.40;;;23.40;73.70;;;;;;5071304;28;20045;-63
2023/08/15 01:42:40;;;;;;;3.30;1.73;;;23.50;73.80;;;;;;5071554;28;20049;-63
2023/08/15 01:45:06;;;;;;;3.83;1.58;;;23.40;73.80;;;;;;5072946;28;20036;-63
2023/08/15 01:47:32;;;;;;;4.88;1.73;;;23.40;73.80;;;;;;5071012;28;20045;-62
2023/08/15 01:49:57;;;;;;;2.58;1.40;;;23.40;73.80;;;;;;5071712;28;20098;-63
2023/08/15 01:52:23;;;;;;;3.60;1.60;;;23.40;73.70;;;;;;5072846;28;20044;-63
2023/08/15 01:54:49;;;;;;;3.85;1.60;;;23.40;73.80;;;;;;5070666;28;20041;-62
2023/08/15 01:57:14;;;;;;;3.15;1.70;;;23.40;73.70;;;;;;5072467;28;20055;-62
2023/08/15 01:59:40;;;;;;;3.35;1.50;;;23.40;73.70;;;;;;5072508;28;20040;-62
2023/08/15 02:02:06;;;;;;;4.85;1.60;;;23.40;73.70;;;;;;5067032;28;20449;-63
2023/08/15 02:04:32;;;;;;;3.08;1.58;;;23.40;73.70;;;;;;5072318;28;20068;-62
2023/08/15 02:06:58;;;;;;;2.97;1.73;;;23.40;73.70;;;;;;5070593;28;20048;-62
2023/08/15 02:09:24;;;;;;;3.97;1.60;;;23.40;73.70;;;;;;5071994;28;20033;-62
2023/08/15 02:11:50;;;;;;;3.42;1.55;;;23.40;73.70;;;;;;5072074;28;20116;-63
2023/08/15 02:14:15;;;;;;;2.92;1.42;;;23.40;73.70;;;;;;5072691;28;20448;-62
2023/08/15 02:16:41;;;;;;;2.80;1.58;;;23.40;73.70;;;;;;5071510;28;20037;-63
2023/08/15 02:19:07;;;;;;;3.75;1.58;;;23.40;73.70;;;;;;5072497;28;20040;-62
2023/08/15 02:21:32;;;;;;;3.22;1.80;;;23.40;73.70;;;;;;5072361;28;20041;-62
2023/08/15 02:23:58;;;;;;;3.53;1.48;;;23.40;73.70;;;;;;5071265;28;20043;-62
2023/08/15 02:26:23;;;;;;;3.85;1.77;;;23.40;73.70;;;;;;5072222;28;20476;-62
2023/08/15 02:28:49;;;;;;;3.65;1.77;;;23.40;73.70;;;;;;5072048;28;20084;-62
2023/08/15 02:31:15;;;;;;;3.47;1.70;;;23.40;73.70;;;;;;5071552;28;20044;-62
2023/08/15 02:33:40;;;;;;;3.47;1.90;;;23.40;73.70;;;;;;5070599;28;20511;-62
2023/08/15 02:36:06;;;;;;;3.53;1.83;;;23.30;73.60;;;;;;5072538;28;20493;-62
2023/08/15 02:38:33;;;;;;;4.25;1.63;;;23.40;73.60;;;;;;5071251;28;20040;-62
2023/08/15 02:40:58;;;;;;;3.78;1.90;;;23.30;73.60;;;;;;5072358;28;20504;-63
2023/08/15 02:43:24;;;;;;;3.05;1.67;;;23.30;73.60;;;;;;5071365;28;20045;-62
2023/08/15 02:45:49;;;;;;;3.45;1.85;;;23.30;73.60;;;;;;5071941;28;20053;-62
2023/08/15 02:48:15;;;;;;;4.35;1.80;;;23.30;73.60;;;;;;5071997;28;20076;-62
2023/08/15 02:50:42;;;;;;;3.35;1.90;;;23.30;73.60;;;;;;5071403;28;20048;-62
2023/08/15 02:53:07;;;;;;;3.10;1.80;;;23.30;73.60;;;;;;5071101;28;20040;-62
2023/08/15 02:55:33;;;;;;;3.55;1.70;;;23.30;73.60;;;;;;5072311;28;20048;-62
2023/08/15 02:57:59;;;;;;;3.58;1.77;;;23.30;73.60;;;;;;5071250;28;20127;-62
2023/08/15 03:00:24;;;;;;;3.90;2.03;;;23.30;73.60;;;;;;5072155;28;20041;-62
2023/08/15 03:02:50;;;;;;;2.75;1.90;;;23.30;73.60;;;;;;5071970;28;20388;-62
2023/08/15 03:05:16;;;;;;;3.45;1.65;;;23.30;73.60;;;;;;5071615;28;20070;-62
2023/08/15 03:07:41;;;;;;;3.28;1.90;;;23.30;73.60;;;;;;5071758;28;20044;-62
2023/08/15 03:10:07;;;;;;;3.90;1.75;;;23.30;73.60;;;;;;5072156;28;20037;-62
2023/08/15 03:12:33;;;;;;;2.78;1.50;;;23.30;73.60;;;;;;5069617;28;20041;-62
2023/08/15 03:14:59;;;;;;;3.92;1.60;;;23.30;73.60;;;;;;5071732;28;20082;-62
2023/08/15 03:17:25;;;;;;;3.47;1.67;;;23.30;73.60;;;;;;5071800;28;20044;-62
2023/08/15 03:19:52;;;;;;;2.40;1.55;;;23.30;73.60;;;;;;5069778;28;20044;-62
2023/08/15 03:22:18;;;;;;;2.95;1.80;;;23.30;73.90;;;;;;5071304;28;20387;-62
2023/08/15 03:24:44;;;;;;;3.00;1.90;;;23.30;73.60;;;;;;5071814;28;20052;-62
2023/08/15 03:27:09;;;;;;;2.97;1.80;;;23.30;73.60;;;;;;5071108;28;20076;-62
2023/08/15 03:29:35;;;;;;;3.67;1.80;;;23.30;73.60;;;;;;5070407;28;20136;-62
2023/08/15 03:32:00;;;;;;;3.65;1.63;;;23.30;73.60;;;;;;5072073;28;20525;-62
2023/08/15 03:34:26;;;;;;;2.97;1.80;;;23.30;73.60;;;;;;5070949;28;20084;-62
2023/08/15 03:36:51;;;;;;;3.05;1.75;;;23.30;73.60;;;;;;5072293;28;20094;-62
2023/08/15 03:39:17;;;;;;;3.85;1.80;;;23.30;73.60;;;;;;5075529;28;20099;-63
2023/08/15 03:41:42;;;;;;;2.28;1.52;;;23.30;73.60;;;;;;5074290;28;20488;-62
2023/08/15 03:44:08;;;;;;;2.92;1.65;;;23.30;73.70;;;;;;5075210;28;20044;-62
2023/08/15 03:46:34;;;;;;;2.50;1.63;;;23.30;73.70;;;;;;5075108;28;20090;-62
2023/08/15 03:48:59;;;;;;;3.03;1.83;;;23.30;73.70;;;;;;5074617;28;20052;-63
2023/08/15 03:51:25;;;;;;;2.88;1.70;;;23.30;73.70;;;;;;5075223;28;20041;-62
2023/08/15 03:53:51;;;;;;;3.85;1.70;;;23.20;73.60;;;;;;5074096;28;20044;-62
2023/08/15 03:56:16;;;;;;;3.33;1.77;;;23.20;73.60;;;;;;5075318;28;20036;-62
2023/08/15 03:58:42;;;;;;;3.72;1.80;;;23.30;73.60;;;;;;5066609;28;20025;-62
2023/08/15 04:01:07;;;;;;;2.80;1.65;;;23.20;73.60;;;;;;5071766;28;20131;-62
2023/08/15 04:03:33;;;;;;;4.25;1.90;;;23.20;73.60;;;;;;5072646;28;20047;-63
2023/08/15 04:05:58;;;;;;;3.47;1.73;;;23.20;73.60;;;;;;5072872;28;20090;-62
2023/08/15 04:08:24;;;;;;;4.68;2.20;;;23.20;73.60;;;;;;5073064;28;20045;-63
2023/08/15 04:10:50;;;;;;;2.65;1.95;;;23.20;73.50;;;;;;5074072;28;20048;-62
2023/08/15 04:13:15;;;;;;;2.88;1.70;;;23.20;73.50;;;;;;5074490;28;20036;-63
2023/08/15 04:15:41;;;;;;;3.95;1.77;;;23.20;73.60;;;;;;5073617;28;20151;-62
2023/08/15 04:18:08;;;;;;;4.18;1.90;;;23.20;73.60;;;;;;5074772;28;20044;-62
2023/08/15 04:20:40;;;;;;;2.67;1.85;;;23.20;73.50;;;;;;5074703;28;20037;-62
2023/08/15 04:23:06;;;;;;;3.15;1.90;;;23.20;73.60;;;;;;5074003;28;20052;-62
2023/08/15 04:25:33;;;;;;;4.50;1.98;;;23.20;73.60;;;;;;5073143;28;20067;-62
2023/08/15 04:27:59;;;;;;;3.80;1.98;;;23.20;73.60;;;;;;5074452;28;20037;-62
2023/08/15 04:30:24;;;;;;;3.35;1.75;;;23.20;73.60;;;;;;5073872;28;20033;-63
2023/08/15 04:32:50;;;;;;;3.92;1.75;;;23.20;73.60;;;;;;5073929;28;20527;-63
2023/08/15 04:35:15;;;;;;;2.65;2.00;;;23.20;73.60;;;;;;5074457;28;20060;-62
2023/08/15 04:37:41;;;;;;;3.30;2.00;;;23.20;73.50;;;;;;5072802;28;20431;-62
2023/08/15 04:40:10;;;;;;;3.50;1.90;;;23.20;73.50;;;;;;5073021;28;20040;-62
2023/08/15 04:42:36;;;;;;;4.03;1.90;;;23.20;73.60;;;;;;5074108;28;20102;-63
2023/08/15 04:45:02;;;;;;;2.60;1.75;;;23.20;73.50;;;;;;5073397;28;20472;-63
2023/08/15 04:47:28;;;;;;;3.40;1.70;;;23.20;73.60;;;;;;5073908;28;20043;-62
2023/08/15 04:49:53;;;;;;;3.22;1.75;;;23.20;73.60;;;;;;5072599;28;20037;-62
2023/08/15 04:52:19;;;;;;;2.72;1.98;;;23.20;73.60;;;;;;5073372;28;20089;-62
2023/08/15 04:54:44;;;;;;;2.25;1.70;;;23.20;73.60;;;;;;5073683;28;20408;-62
2023/08/15 04:57:10;;;;;;;3.33;2.10;;;23.20;73.60;;;;;;5073528;28;20041;-62
2023/08/15 04:59:35;;;;;;;2.67;1.88;;;23.20;73.60;;;;;;5073324;28;20438;-62
2023/08/15 05:02:01;;;;;;;3.95;2.00;;;23.20;73.60;;;;;;5074223;28;20044;-62
2023/08/15 05:04:27;;;;;;;3.10;1.65;;;23.20;73.60;;;;;;5072906;28;20117;-62
2023/08/15 05:06:52;;;;;;;3.13;1.98;;;23.20;73.60;;;;;;5073615;28;20048;-62
2023/08/15 05:09:18;;;;;;;2.70;1.80;;;23.20;73.60;;;;;;5073765;28;20387;-62
2023/08/15 05:11:45;;;;;;;4.32;2.05;;;23.20;73.60;;;;;;5072713;28;20047;-62
2023/08/15 05:14:11;;;;;;;2.88;1.60;;;23.10;73.60;;;;;;5073384;28;20041;-62
2023/08/15 05:16:37;;;;;;;3.55;1.80;;;23.20;73.70;;;;;;5071865;28;20123;-62
2023/08/15 05:19:02;;;;;;;4.20;1.85;;;23.20;73.70;;;;;;5072795;28;20090;-62
2023/08/15 05:21:28;;;;;;;3.67;2.08;;;23.20;73.70;;;;;;5073629;28;20040;-61
2023/08/15 05:23:54;;;;;;;2.67;1.80;;;23.20;73.80;;;;;;5073180;28;20041;-61
2023/08/15 05:26:19;;;;;;;4.03;1.90;;;23.20;73.80;;;;;;5071340;28;20052;-61
2023/08/15 05:28:45;;;;;;;3.75;1.67;;;23.10;73.60;;;;;;5071709;28;20044;-60
2023/08/15 05:31:10;;;;;;;3.65;2.10;;;23.10;73.60;;;;;;5072008;28;20040;-61
2023/08/15 05:33:36;;;;;;;4.50;2.03;;;23.20;73.70;;;;;;5070468;28;20060;-61
2023/08/15 05:36:02;;;;;;;4.63;2.40;;;23.20;73.70;;;;;;5073385;28;20040;-60
2023/08/15 05:38:27;;;;;;;5.53;2.15;;;23.20;73.70;;;;;;5071738;28;20434;-60
2023/08/15 05:40:53;;;;;;;4.88;1.95;;;23.20;73.70;;;;;;5072221;28;20045;-60
2023/08/15 05:43:18;;;;;;;4.10;2.17;;;23.20;73.70;;;;;;5072801;28;20062;-61
2023/08/15 05:45:46;;;;;;;4.95;2.58;;;23.20;73.70;;;;;;5071420;28;20051;-61
2023/08/15 05:48:11;;;;;;;6.00;2.25;;;23.20;73.70;;;;;;5070624;28;20488;-61
2023/08/15 05:50:37;;;;;;;5.68;2.28;;;23.20;73.70;;;;;;5072885;28;20048;-61
2023/08/15 05:53:03;;;;;;;5.13;2.40;;;23.20;73.80;;;;;;5073014;28;20044;-61
2023/08/15 05:55:29;;;;;;;4.32;2.15;;;23.20;73.70;;;;;;5072357;28;20059;-61
2023/08/15 05:57:54;;;;;;;5.47;2.20;;;23.20;73.70;;;;;;5072655;28;20048;-61
2023/08/15 06:00:20;;;;;;;5.82;2.55;;;23.20;73.70;;;;;;5070548;28;20036;-61
2023/08/15 06:02:45;;;;;;;6.03;2.15;;;23.20;74.30;;;;;;5072147;28;20044;-61
2023/08/15 06:05:11;;;;;;;5.40;2.40;;;23.20;73.70;;;;;;5072942;28;20040;-61
2023/08/15 06:07:37;;;;;;;6.45;2.58;;;23.20;73.80;;;;;;5071782;28;20040;-61
2023/08/15 06:10:02;;;;;;;4.32;2.22;;;23.20;73.80;;;;;;5071381;28;20036;-61
2023/08/15 06:12:28;;;;;;;7.90;2.75;;;23.20;73.80;;;;;;5071368;28;20033;-61
2023/08/15 06:14:56;;;;;;;5.18;2.90;;;23.20;73.90;;;;;;5071429;28;20036;-61
2023/08/15 06:17:22;;;;;;;4.30;2.47;;;23.20;73.90;;;;;;5072635;28;20067;-61
2023/08/15 06:19:48;;;;;;;6.85;2.63;;;23.20;74.10;;;;;;5072218;28;20068;-62
2023/08/15 06:22:15;;;;;;;7.88;2.72;;;23.30;74.20;;;;;;5070544;28;20044;-62
2023/08/15 06:24:40;;;;;;;5.28;2.40;;;23.30;74.30;;;;;;5072111;28;20045;-62
2023/08/15 06:27:06;;;;;;;4.28;2.70;;;23.30;74.40;;;;;;5072153;28;20131;-62
2023/08/15 06:29:31;;;;;;;5.60;2.80;;;23.30;74.40;;;;;;5071160;28;20040;-62
2023/08/15 06:31:57;;;;;;;7.15;3.10;;;23.30;74.70;;;;;;5071048;28;20063;-61
2023/08/15 06:34:23;;;;;;;6.55;3.00;;;23.30;74.50;;;;;;5069526;28;20049;-61
2023/08/15 06:36:49;;;;;;;8.23;2.90;;;23.30;74.50;;;;;;5069813;28;20101;-61
2023/08/15 06:39:14;;;;;;;4.53;2.33;;;23.30;74.60;;;;;;5071671;28;20432;-61
2023/08/15 06:41:40;;;;;;;4.93;2.70;;;23.30;74.60;;;;;;5072212;28;20072;-61
2023/08/15 06:44:05;;;;;;;6.00;2.65;;;23.30;74.70;;;;;;5071449;28;20036;-61
2023/08/15 06:46:31;;;;;;;7.78;2.65;;;23.30;74.70;;;;;;5072474;28;20120;-61
2023/08/15 06:48:56;;;;;;;5.35;2.90;;;23.30;74.70;;;;;;5071872;28;20158;-61
2023/08/15 06:51:22;;;;;;;4.93;3.08;;;23.30;74.80;;;;;;5069631;28;20040;-61
2023/08/15 06:53:52;;;;;;;6.75;2.78;;;23.40;74.80;;;;;;5070496;28;20040;-61
2023/08/15 06:56:18;;;;;;;8.57;3.13;;;23.30;74.80;;;;;;5072299;28;20061;-61
2023/08/15 06:58:43;;;;;;;6.22;2.72;;;23.40;74.90;;;;;;5070953;28;20100;-61
2023/08/15 07:01:09;;;;;;;5.28;2.65;;;23.40;74.90;;;;;;5071491;28;20049;-61
2023/08/15 07:03:35;;;;;;;5.05;3.15;;;23.40;75.00;;;;;;5071600;28;20479;-61
2023/08/15 07:06:00;;;;;;;5.10;2.92;;;23.40;75.00;;;;;;5071363;28;20087;-60
2023/08/15 07:08:26;;;;;;;5.13;2.70;;;23.40;75.00;;;;;;5072157;28;20119;-60
2023/08/15 07:10:55;;;;;;;5.25;2.70;;;23.40;75.00;;;;;;5070971;28;20080;-60
2023/08/15 07:13:21;;;;;;;6.80;3.10;;;23.40;75.00;;;;;;5073697;28;20056;-60
2023/08/15 07:15:52;;;;;;;6.80;2.63;;;23.50;75.10;;;;;;5075159;28;20173;-60
2023/08/15 07:18:18;;;;;;;5.88;2.90;;;23.40;75.00;;;;;;5075233;28;20052;-60
2023/08/15 07:20:44;;;;;;;5.38;2.53;;;23.50;75.10;;;;;;5075880;28;20033;-60
2023/08/15 07:23:10;;;;;;;5.28;2.60;;;23.50;75.10;;;;;;5075753;28;20088;-61
2023/08/15 07:25:41;;;;;;;4.85;2.70;;;23.50;75.10;;;;;;5074750;28;20076;-61
2023/08/15 07:28:07;;;;;;;4.65;2.63;;;23.50;75.10;;;;;;5075782;28;20041;-61
2023/08/15 07:30:33;;;;;;;6.65;2.85;;;23.50;75.10;;;;;;5075481;28;20530;-60
2023/08/15 07:32:58;;;;;;;5.97;2.70;;;23.50;75.10;;;;;;5074174;28;20053;-60
2023/08/15 07:35:24;;;;;;;6.43;2.70;;;23.50;75.10;;;;;;5075495;28;20040;-61
2023/08/15 07:37:50;;;;;;;5.90;2.95;;;23.50;75.10;;;;;;5073762;28;20053;-60
2023/08/15 07:40:21;;;;;;;4.78;2.63;;;23.50;75.10;;;;;;5073654;28;20102;-60
2023/08/15 07:42:49;;;;;;;4.80;3.08;;;23.60;75.20;;;;;;5074802;28;20377;-60
2023/08/15 07:45:16;;;;;;;5.00;2.72;;;23.60;75.20;;;;;;5074986;28;20435;-61
2023/08/15 07:47:41;;;;;;;6.45;3.05;;;23.60;75.20;;;;;;5074273;28;20091;-60
2023/08/15 07:50:13;;;;;;;6.30;2.75;;;23.60;75.20;;;;;;5075129;28;20056;-60
2023/08/15 07:52:39;;;;;;;5.82;2.70;;;23.60;75.20;;;;;;5075022;28;20454;-60
2023/08/15 07:55:05;;;;;;;10.32;2.90;;;23.60;75.20;;;;;;5074485;28;20041;-60
2023/08/15 07:57:30;;;;;;;5.10;2.70;;;23.60;75.30;;;;;;5075107;28;20094;-60
2023/08/15 07:59:56;;;;;;;4.00;2.40;;;23.60;75.30;;;;;;5073957;28;20090;-61
2023/08/15 08:02:22;;;;;;;5.07;2.38;;;23.70;75.40;;;;;;5073739;28;20101;-60
2023/08/15 08:04:48;;;;;;;4.22;2.42;;;23.70;75.40;;;;;;5074471;28;20044;-61
2023/08/15 08:07:16;;;;;;;5.20;2.30;;;23.70;75.40;;;;;;5074062;28;20089;-62
2023/08/15 08:09:42;;;;;;;5.03;2.63;;;23.70;75.30;;;;;;5074430;28;20064;-61
2023/08/15 08:12:14;;;;;;;7.05;2.60;;;23.80;75.30;;;;;;5073390;28;20519;-61
2023/08/15 08:14:39;;;;;;;5.82;2.40;;;23.80;75.30;;;;;;5073328;28;20541;-62
2023/08/15 08:17:05;;;;;;;5.38;2.25;;;23.80;75.20;;;;;;5074591;28;20037;-61
2023/08/15 08:19:31;;;;;;;4.38;2.15;;;23.70;75.10;;;;;;5074197;28;20041;-61
2023/08/15 08:21:56;;;;;;;4.65;2.47;;;23.80;75.20;;;;;;5073492;28;20070;-61
2023/08/15 08:24:22;;;;;;;4.35;2.45;;;23.80;75.10;;;;;;5074016;28;20032;-60
2023/08/15 08:26:48;;;;;;;5.15;2.30;;;23.80;75.00;;;;;;5074078;28;20055;-60
2023/08/15 08:29:14;;;;;;;9.27;2.83;;;23.80;74.90;;;;;;5073635;28;20037;-61
2023/08/15 08:31:39;;;;;;;8.63;2.55;;;23.80;74.70;;;;;;5074246;28;20044;-61
2023/08/15 08:34:13;;;;;;;5.25;2.40;;;23.80;74.50;;;;;;5073487;28;20117;-62
2023/08/15 08:36:41;;;;;;;7.93;2.50;;;23.80;74.30;;;;;;5072058;28;20052;-61
2023/08/15 08:39:09;;;;;;;;;;;23.80;74.10;;;;;;5068032;28;20400;-61
2023/08/15 08:41:38;;;;;;;7.82;2.33;;;23.70;74.00;;;;;;5073211;28;19955;-61
2023/08/15 08:44:04;;;;;;;7.05;2.83;;;23.70;74.10;;;;;;5073080;28;20045;-61
2023/08/15 08:46:30;;;;;;;7.60;2.63;;;23.70;74.00;;;;;;5072304;28;20043;-61
2023/08/15 08:48:56;;;;;;;6.78;2.20;;;23.70;73.90;;;;;;5072966;28;20037;-61
2023/08/15 08:51:22;;;;;;;7.53;2.53;;;23.70;73.80;;;;;;5054580;28;20036;-61
2023/08/15 08:53:48;;;;;;;7.90;2.47;;;23.70;73.60;;;;;;5071625;28;20052;-61
2023/08/15 08:56:13;;;;;;;8.18;2.70;;;23.70;73.00;;;;;;5070552;28;20045;-62
2023/08/15 08:58:39;;;;;;;8.27;2.70;;;23.60;72.40;;;;;;5071773;28;20036;-61
2023/08/15 09:01:04;;;;;;;9.52;2.90;;;23.60;72.10;;;;;;5055902;28;20527;-62
2023/08/15 09:03:31;;;;;;;6.93;2.63;;;23.50;72.40;;;;;;5054667;28;20052;-61
2023/08/15 09:05:57;;;;;;;10.70;3.75;;;23.50;71.60;;;;;;5072055;28;20095;-62
2023/08/15 09:08:23;;;;;;;6.13;2.53;;;23.50;71.50;;;;;;5072172;28;20079;-61
2023/08/15 09:10:48;;;;;;;7.35;3.10;;;23.50;71.40;;;;;;5072896;28;20391;-62
2023/08/15 09:13:16;;;;;;;6.95;3.08;;;23.40;71.30;;;;;;5073962;28;20119;-62
2023/08/15 09:15:48;;;;;;;6.22;3.25;;;23.40;71.20;;;;;;5055506;28;20040;-61
2023/08/15 09:18:14;;;;;;;6.60;2.95;;;23.40;71.30;;;;;;5073137;28;20054;-61
2023/08/15 09:20:45;;;;;;;8.10;3.38;;;23.40;71.20;;;;;;5073069;28;20547;-61
2023/08/15 09:23:11;;;;;;;8.30;3.60;;;23.40;71.00;;;;;;5073511;28;20041;-61
2023/08/15 09:25:37;;;;;;;8.38;3.50;;;23.40;71.10;;;;;;5072232;28;20151;-61
2023/08/15 09:28:05;;;;;;;7.32;3.30;;;23.40;71.10;;;;;;5073505;28;20045;-61
2023/08/15 09:30:31;;;;;;;7.97;3.92;;;23.40;71.30;;;;;;5073529;28;20136;-60
2023/08/15 09:32:56;;;;;;;7.97;3.67;;;23.40;71.30;;;;;;5072332;28;20143;-61
2023/08/15 09:35:22;;;;;;;7.47;3.72;;;23.40;71.50;;;;;;5072262;28;20174;-61
2023/08/15 09:37:49;;;;;;;9.43;3.78;;;23.40;71.50;;;;;;5072811;28;20048;-61
2023/08/15 09:40:16;;;;;;;7.57;3.53;;;23.40;71.60;;;;;;5072249;28;20043;-60
2023/08/15 09:42:43;;;;;;;8.38;4.00;;;23.40;71.60;;;;;;5071152;28;20115;-61
2023/08/15 09:45:09;;;;;;;6.25;3.40;;;23.40;71.60;;;;;;5071432;28;20079;-61
2023/08/15 09:47:36;;;;;;;7.63;3.88;;;23.40;71.40;;;;;;5071928;28;20090;-61
2023/08/15 09:50:02;;;;;;;10.48;4.45;;;23.40;71.60;;;;;;5072994;28;20045;-61
2023/08/15 09:52:28;;;;;;;7.55;4.20;;;23.40;71.70;;;;;;5054467;28;20036;-61
2023/08/15 09:54:54;;;;;;;7.78;3.22;;;23.40;71.80;;;;;;5071440;28;20049;-61
2023/08/15 09:57:20;;;;;;;7.03;3.15;;;23.40;71.70;;;;;;5071198;28;20082;-61
2023/08/15 09:59:45;;;;;;;5.55;3.08;;;23.40;71.60;;;;;;5071765;28;20143;-61
2023/08/15 10:02:21;;;;;;;6.90;3.00;;;23.40;71.70;;;;;;5072492;28;20043;-61
2023/08/15 10:04:57;;;;;;;7.28;3.08;;;23.40;71.80;;;;;;5063132;28;20041;-61
2023/08/15 10:07:24;;;;;;;8.52;2.90;;;23.40;71.90;;;;;;5041466;28;20064;-60
2023/08/15 10:09:49;;;;;;;8.82;4.20;;;23.40;71.90;;;;;;5054452;28;20044;-61
2023/08/15 10:12:16;;;;;;;7.63;2.67;;;23.40;72.10;;;;;;5053810;28;20115;-61
2023/08/15 10:14:42;;;;;;;8.48;2.70;;;23.40;72.20;;;;;;5061529;28;20056;-61
2023/08/15 10:17:07;;;;;;;5.85;2.40;;;23.40;72.10;;;;;;5068034;28;20046;-61
2023/08/15 10:19:33;;;;;;;8.23;2.40;;;23.40;72.00;;;;;;5058779;28;20040;-61
2023/08/15 10:21:58;;;;;;;8.93;2.60;;;23.40;72.10;;;;;;5072508;28;20404;-61
2023/08/15 10:24:24;;;;;;;8.90;2.45;;;23.40;72.10;;;;;;5054309;28;20399;-61
2023/08/15 10:26:50;;;;;;;8.05;2.40;;;23.40;72.10;;;;;;5072462;28;20040;-61
2023/08/15 10:29:16;;;;;;;6.82;2.17;;;23.40;72.10;;;;;;5070773;28;20040;-61
2023/08/15 10:31:42;;;;;;;7.47;2.08;;;23.40;72.10;;;;;;5070884;28;20443;-61
2023/08/15 10:34:09;;;;;;;5.63;2.08;;;23.40;72.00;;;;;;5072334;28;20057;-60
2023/08/15 10:36:34;;;;;;;6.75;2.35;;;23.50;72.00;;;;;;5071387;28;20040;-61
2023/08/15 10:39:05;;;;;;;7.13;2.25;;;23.50;71.90;;;;;;5072734;28;20151;-61
2023/08/15 10:41:31;;;;;;;6.72;2.53;;;23.50;71.80;;;;;;5071459;28;20075;-61
2023/08/15 10:43:59;;;;;;;7.38;2.20;;;23.50;71.80;;;;;;5071204;28;20076;-61
2023/08/15 10:46:28;;;;;;;5.10;2.10;;;23.50;71.80;;;;;;5073099;28;20045;-60
2023/08/15 10:49:06;;;;;;;6.95;2.05;;;23.50;71.80;;;;;;5075410;28;20048;-61
2023/08/15 10:51:33;;;;;;;;;;;23.50;71.70;;;;;;5077165;28;20425;-61
2023/08/15 10:54:03;;;;;;;5.30;1.80;;;23.50;71.60;;;;;;5076675;28;19943;-61
2023/08/15 10:56:30;;;;;;;6.25;2.22;;;23.50;71.70;;;;;;5075484;28;20049;-60
2023/08/15 10:58:56;;;;;;;5.35;1.83;;;23.50;71.70;;;;;;5075665;28;20040;-61
2023/08/15 11:01:23;;;;;;;6.20;2.30;;;23.50;71.70;;;;;;5076495;28;20044;-61
2023/08/15 11:03:50;;;;;;;4.40;1.75;;;23.50;71.60;;;;;;5075328;28;20049;-61
2023/08/15 11:06:16;;;;;;;6.88;2.00;;;23.50;71.50;;;;;;5075971;28;20067;-60
2023/08/15 11:08:47;;;;;;;6.32;1.95;;;23.50;71.50;;;;;;5069641;28;20032;-60
2023/08/15 11:11:13;;;;;;;6.15;1.85;;;23.50;71.20;;;;;;5063955;28;20507;-61
2023/08/15 11:13:42;;;;;;;5.70;1.73;;;23.50;71.00;;;;;;5055652;28;20033;-61
2023/08/15 11:16:08;;;;;;;4.53;1.35;;;23.50;70.60;;;;;;5056034;28;20162;-61
2023/08/15 11:18:37;;;;;;;4.90;1.55;;;23.50;70.50;;;;;;5054015;28;20120;-61
2023/08/15 11:21:03;;;;;;;3.22;1.33;;;23.50;70.50;;;;;;5055702;28;20487;-60
2023/08/15 11:23:29;;;;;;;4.47;1.30;;;23.50;70.50;;;;;;5060303;28;20059;-61
2023/08/15 11:26:02;;;;;;;5.28;1.60;;;23.50;70.50;;;;;;5074616;28;20036;-61
2023/08/15 11:28:28;;;;;;;6.28;2.20;;;23.50;70.50;;;;;;5075774;28;20052;-60
2023/08/15 11:30:53;;;;;;;7.68;2.20;;;23.50;70.50;;;;;;5073690;28;20052;-60
2023/08/15 11:33:19;;;;;;;5.88;1.75;;;23.60;70.70;;;;;;5075156;28;20048;-60
2023/08/15 11:35:47;;;;;;;5.55;1.85;;;23.60;70.70;;;;;;5075607;28;20049;-61
2023/08/15 11:38:13;;;;;;;7.22;2.03;;;23.60;70.60;;;;;;5074663;28;20476;-60
2023/08/15 11:40:39;;;;;;;4.55;2.00;;;23.60;70.70;;;;;;5073904;28;20043;-61
2023/08/15 11:43:05;;;;;;;5.35;1.85;;;23.60;70.60;;;;;;5071518;28;20072;-60
2023/08/15 11:45:31;;;;;;;7.63;1.90;;;23.70;70.70;;;;;;5071945;28;20044;-61
2023/08/15 11:48:01;;;;;;;7.50;1.83;;;23.70;70.70;;;;;;5075341;28;20040;-61
2023/08/15 11:50:28;;;;;;;5.45;1.90;;;23.70;70.70;;;;;;5075488;28;20068;-61
2023/08/15 11:52:54;;;;;;;5.10;2.00;;;23.70;70.70;;;;;;5074351;28;20048;-61
2023/08/15 11:55:21;;;;;;;5.82;2.03;;;23.70;70.60;;;;;;5075416;28;20043;-61
2023/08/15 11:57:47;;;;;;;7.63;2.10;;;23.70;70.40;;;;;;5074499;28;20087;-62
2023/08/15 12:00:15;;;;;;;4.57;1.63;;;23.70;70.30;;;;;;5074385;28;20123;-61
2023/08/15 12:02:47;;;;;;;6.63;1.98;;;23.70;70.00;;;;;;5075103;28;20037;-61
2023/08/15 12:05:19;;;;;;;7.15;2.10;;;23.70;70.00;;;;;;5075247;28;20048;-61
2023/08/15 12:07:45;;;;;;;6.07;2.00;;;23.80;70.20;;;;;;5074063;28;20063;-61
2023/08/15 12:10:12;;;;;;;5.90;1.90;;;23.80;70.30;;;;;;5075261;28;20056;-60
2023/08/15 12:12:42;;;;;;;6.97;2.33;;;23.80;70.30;;;;;;5074804;28;20076;-61
2023/08/15 12:15:09;;;;;;;7.00;2.03;;;23.80;70.30;;;;;;5074091;28;20036;-60
2023/08/15 12:17:34;;;;;;;5.82;1.92;;;23.80;70.30;;;;;;5073403;28;20112;-60
2023/08/15 12:20:02;;;;;;;4.78;1.83;;;23.80;70.30;;;;;;5075320;28;20179;-63
2023/08/15 12:22:28;;;;;;;10.13;2.55;;;23.90;70.20;;;;;;5074134;28;20484;-62
2023/08/15 12:24:55;;;;;;;6.03;2.30;;;23.90;70.20;;;;;;5073297;28;20058;-61
2023/08/15 12:27:20;;;;;;;7.97;2.10;;;23.90;70.10;;;;;;5073801;28;20041;-61
2023/08/15 12:29:47;;;;;;;8.73;2.47;;;23.90;70.20;;;;;;5071647;28;20047;-61
2023/08/15 12:32:13;;;;;;;7.95;2.42;;;23.90;70.30;;;;;;5072140;28;20116;-61
2023/08/15 12:34:39;;;;;;;9.45;2.70;;;23.90;70.40;;;;;;5069866;28;20566;-61
2023/08/15 12:37:04;;;;;;;8.40;2.30;;;23.90;70.40;;;;;;5070559;28;20037;-61
2023/08/15 12:39:30;;;;;;;6.38;2.20;;;23.90;70.40;;;;;;5072363;28;20043;-61
2023/08/15 12:41:55;;;;;;;8.00;2.60;;;23.90;70.40;;;;;;5071051;28;20044;-60
2023/08/15 12:44:21;;;;;;;6.53;2.25;;;23.90;70.40;;;;;;5073636;28;20037;-60